Cedar, Kansas
Current Conditions -  °F | °C
As of 8:53 AM on Saturday 20 Dec 2014 (Local Time) from KHLC Reporting Station
Clear Clear  
Wind Chill: 24°   Ceiling: Unl
Heat Index: 29°   Visibility: 8mi
Dew Point: 25°   Wind: 5mph
Humidity: 85%   Direction: 290°WNW
Pressure: 30.07"   Gusts: NA
Location:  39.66°N, 98.94°W
Report Text: KHLC 201453Z AUTO 29004KT 8SM CLR M02/M04 A3007 RMK AO2 SLP201 I3000 T10171039 51006
Loading
Personal Weather Stations






























Interactive Weather Map New forecast layout! Learn more

10-Day Weather Forecast

Advertisements
Track Severe Weather on mobile